Bradford, NH (03221)

9:24 AM EDT on March 27, 2017 (GMT -0400)
Bradford Center | | Change Station
Active Advisory: Freezing Rain Advisory

Elev 906 ft 43.23 °N, 71.96 °W | Updated 29 seconds ago

Ice Pellets
Ice Pellets
32.2 °F
Feels Like 32 °F
N
0.0
Wind Variable Wind from East

Today
High -- | Low -- °F
--% Chance of Precip.
Yesterday
High -- | Low -- °F
Precip. -- in
Pressure 30.20 in
Visibility 3.0 miles
Clouds Overcast 900 ft
Windchill 32 °F
Dew Point 31 °F
Humidity 98%
Rainfall 0.11 in
Snow Depth Not available.
6:38 AM 7:08 PM
Waning Crescent, 0% visible
SPECI KCON 271314Z AUTO 03004KT 3SM RA BR OVC009 01/00 A3020 RMK AO2 CIG 006V012 P0006 T00110000
Pressure 30.20 in
Visibility 3.0 miles
Clouds Overcast 900 ft
Windchill 32 °F
Dew Point 31 °F
Humidity 98%
Rainfall 0.11 in
Snow Depth Not available.
6:38 AM 7:08 PM
Waning Crescent, 0% visible
SPECI KCON 271314Z AUTO 03004KT 3SM RA BR OVC009 01/00 A3020 RMK AO2 CIG 006V012 P0006 T00110000

Get Your Daily Forecast Email!

Thanks for signing up!

Be on the lookout for a verification email in your inbox.

You'll start receiving severe weather alerts in your inbox..

×

10-Day Weather Forecast

Almanac

Astronomy

Mar. 27, 2017 Rise Set
Actual Time
Civil Twilight
Nautical Twilight
Astronomical Twilight
Moon
Length of Visible Light
Length of Day
Tomorrow will be .
, % of the Moon is Illuminated

Today's Extremes

State Highs State Lows

Community

WunderPhotos

Upload Photos

1,962,540 photos uploaded!

WunderBlog® & News

Nearby

Air Quality

  Air Quality AQ Index Pollutant
Not available.

Snow Depth

Station Depth Elevation

Earthquake Activity

City Distance Mag. Time & Date
Minimum magnitude displayed is 2.5.

Earthquake Activity

City Distance Mag. Time & Date
Minimum magnitude displayed is 2.5.

Coastal Water Temperatures

Place Temperature

Stations

Nearby Weather Stations

Station Location Temp. Windchill Dew Point Humidity Wind Precip. Elev Updated Type
                   

Watches & Warnings

Freezing Rain Advisory
Issued: 8:46 AM EDT Mar. 27, 2017 – National Weather Service

... Freezing Rain Advisory now in effect until 11 am EDT this
morning...

* hazard types... freezing rain.

* Ice accumulations... around a trace.

* Timing... freezing rain... and some sleet... will continue through
the morning before transitioning to rain.

* Impacts... freezing rain will make roads slippery. Motorists
should use caution and slow down.

* Winds... southeast 5 mph or less.

* Temperatures... in the lower 30s.

Precautionary/preparedness actions...

A Freezing Rain Advisory means that periods of freezing rain or
freezing drizzle will cause travel difficulties. Be prepared for
slippery roads. Slow down and use caution while driving.